Weather at Fernandina Beach Municipal Airport

Public forecast

Using degrees Fahrenheit for public forecast. Weather courtesy of forecast.io.

Closest aviation weather report (METAR) to Fernandina Beach Municipal Airport

Closest report is Naval Station Mayport (Admiral David L. Mcdonald Field), 13.4 nm (24.8 km) S. Retrieved 2020/12/01 22:52 UTC (30 minutes ago):

KNRB 012252Z 31008KT 10SM CLR 08/M01 A3017 RMK AO2 SLP215 T00831006

Closest aviation forecast (TAF) to Fernandina Beach Municipal Airport

Closest forecast is Jacksonville International Airport, 13.7 nm (25.3 km) WSW. Retrieved 2020/12/01 18:22 UTC (5 hours ago):

TAF KJAX 011720Z 0118/0218 29012G18KT P6SM SKC FM012200 28003KT P6SM SKC FM021500 35008KT P6SM SKC